createdAt,value
2023-05-14T00:01:01.801Z,11.01
2023-05-14T00:03:49.762Z,10.98
2023-05-14T00:06:38.022Z,11.09
2023-05-14T00:09:25.892Z,11.11
2023-05-14T00:12:15.736Z,11.09
2023-05-14T00:15:04.168Z,10.77
2023-05-14T00:17:52.173Z,10.93
2023-05-14T00:20:40.389Z,10.98
2023-05-14T00:23:28.264Z,10.86
2023-05-14T00:26:17.369Z,10.81
2023-05-14T00:29:07.831Z,10.58
2023-05-14T00:31:56.278Z,10.66
2023-05-14T00:34:44.173Z,10.63
2023-05-14T00:37:32.542Z,10.60
2023-05-14T00:40:21.185Z,10.55
2023-05-14T00:43:09.695Z,10.52
2023-05-14T00:45:59.195Z,10.37
2023-05-14T00:48:47.550Z,10.31
2023-05-14T00:51:35.861Z,10.29
2023-05-14T00:54:23.953Z,10.25
2023-05-14T00:57:12.323Z,10.29
2023-05-14T01:00:00.429Z,10.23
2023-05-14T01:02:50.011Z,10.32
2023-05-14T01:05:45.140Z,10.34
2023-05-14T01:08:51.461Z,10.37
2023-05-14T01:11:52.531Z,10.28
2023-05-14T01:14:46.138Z,10.28
2023-05-14T01:17:38.348Z,10.21
2023-05-14T01:20:28.336Z,10.40
2023-05-14T01:23:17.871Z,10.31
2023-05-14T01:26:06.029Z,10.34
2023-05-14T01:28:56.131Z,10.29
2023-05-14T01:31:46.719Z,10.19
2023-05-14T01:34:37.385Z,10.06
2023-05-14T01:37:26.379Z,10.03
2023-05-14T01:40:16.657Z,9.98
2023-05-14T01:43:05.627Z,9.84
2023-05-14T01:45:55.586Z,10.16
2023-05-14T01:48:43.510Z,10.08
2023-05-14T01:51:32.038Z,10.09
2023-05-14T01:54:19.940Z,10.16
2023-05-14T01:57:09.455Z,10.18
2023-05-14T01:59:57.587Z,10.24
2023-05-14T02:02:45.683Z,10.20
2023-05-14T02:05:33.815Z,10.06
2023-05-14T02:08:21.763Z,10.02
2023-05-14T02:11:10.088Z,10.12
2023-05-14T02:13:59.320Z,10.16
2023-05-14T02:16:51.836Z,10.09
2023-05-14T02:19:39.754Z,10.02
2023-05-14T02:22:27.926Z,10.04
2023-05-14T02:25:16.258Z,9.91
2023-05-14T02:28:04.996Z,9.90
2023-05-14T02:30:59.851Z,9.93
2023-05-14T02:33:47.753Z,9.88
2023-05-14T02:36:35.934Z,9.93
2023-05-14T02:39:23.809Z,9.83
2023-05-14T02:42:11.831Z,9.88
2023-05-14T02:44:59.838Z,9.27
2023-05-14T02:47:49.619Z,9.66
2023-05-14T02:50:37.713Z,9.57
2023-05-14T02:53:25.613Z,9.08
2023-05-14T02:56:13.562Z,9.50
2023-05-14T02:59:01.520Z,9.56
2023-05-14T03:01:50.388Z,9.76
2023-05-14T03:04:40.042Z,9.65
2023-05-14T03:07:28.255Z,9.61
2023-05-14T03:10:16.226Z,9.40
2023-05-14T03:13:04.772Z,9.19
2023-05-14T03:15:54.820Z,9.29
2023-05-14T03:18:43.778Z,9.29
2023-05-14T03:21:33.344Z,9.33
2023-05-14T03:24:21.296Z,9.29
2023-05-14T03:27:09.473Z,9.26
2023-05-14T03:29:57.388Z,9.08
2023-05-14T03:32:46.353Z,9.04
2023-05-14T03:35:34.268Z,9.03
2023-05-14T03:38:23.746Z,8.96
2023-05-14T03:41:11.643Z,8.97
2023-05-14T03:43:59.929Z,8.86
2023-05-14T03:46:48.399Z,8.92
2023-05-14T03:49:36.498Z,8.97
2023-05-14T03:52:24.521Z,8.87
2023-05-14T03:55:13.811Z,8.84
2023-05-14T03:58:02.147Z,8.83
2023-05-14T04:00:50.100Z,9.05
2023-05-14T04:03:38.440Z,8.95
2023-05-14T04:06:26.830Z,9.07
2023-05-14T04:09:16.410Z,8.98
2023-05-14T04:12:06.907Z,9.06
2023-05-14T04:14:55.383Z,9.13
2023-05-14T04:17:43.438Z,9.19
2023-05-14T04:20:33.791Z,9.31
2023-05-14T04:23:22.194Z,9.46
2023-05-14T04:26:10.059Z,9.54
2023-05-14T04:29:03.096Z,9.59
2023-05-14T04:31:51.178Z,9.44
2023-05-14T04:34:39.968Z,9.65
2023-05-14T04:37:27.874Z,9.59
2023-05-14T04:40:16.837Z,9.69
2023-05-14T04:43:05.106Z,9.71
2023-05-14T04:45:54.382Z,9.76
2023-05-14T04:48:42.736Z,9.84
2023-05-14T04:51:30.893Z,10.06
2023-05-14T04:54:19.202Z,10.16
2023-05-14T04:57:07.104Z,10.36
2023-05-14T04:59:55.178Z,10.50
2023-05-14T05:02:44.514Z,10.64
2023-05-14T05:05:33.101Z,10.74
2023-05-14T05:08:20.983Z,10.55
2023-05-14T05:11:09.214Z,10.99
2023-05-14T05:13:57.122Z,11.07
2023-05-14T05:16:45.670Z,11.21
2023-05-14T05:19:43.215Z,11.26
2023-05-14T05:22:32.285Z,11.43
2023-05-14T05:25:20.404Z,11.55
2023-05-14T05:28:08.758Z,11.90
2023-05-14T05:30:56.892Z,12.13
2023-05-14T05:33:45.277Z,12.35
2023-05-14T05:36:34.520Z,12.68
2023-05-14T05:39:22.724Z,12.89
2023-05-14T05:42:10.828Z,13.25
2023-05-14T05:44:58.979Z,13.40
2023-05-14T05:47:46.916Z,13.56
2023-05-14T05:50:35.140Z,13.80
2023-05-14T05:53:24.447Z,13.79
2023-05-14T05:56:12.545Z,13.76
2023-05-14T05:59:00.456Z,13.81
2023-05-14T06:01:48.618Z,13.89
2023-05-14T06:04:36.553Z,13.90
2023-05-14T06:07:24.734Z,13.77
2023-05-14T06:10:14.053Z,13.83
2023-05-14T06:13:02.328Z,13.89
2023-05-14T06:15:50.241Z,14.02
2023-05-14T06:18:38.430Z,14.03
2023-05-14T06:21:26.429Z,13.91
2023-05-14T06:24:14.612Z,13.99
2023-05-14T06:27:03.867Z,14.16
2023-05-14T06:29:51.984Z,14.30
2023-05-14T06:32:39.937Z,14.46
2023-05-14T06:35:28.343Z,14.69
2023-05-14T06:38:16.226Z,14.85
2023-05-14T06:41:04.246Z,14.78
2023-05-14T06:43:53.503Z,14.52
2023-05-14T06:46:41.554Z,14.41
2023-05-14T06:49:29.556Z,14.36
2023-05-14T06:52:18.014Z,14.35
2023-05-14T06:55:06.639Z,14.35
2023-05-14T06:57:54.726Z,14.53
2023-05-14T07:00:44.040Z,15.06
2023-05-14T07:03:32.256Z,15.37
2023-05-14T07:06:20.206Z,15.24
2023-05-14T07:09:08.361Z,15.18
2023-05-14T07:11:56.279Z,15.82
2023-05-14T07:14:44.314Z,16.58
2023-05-14T07:17:33.599Z,17.14
2023-05-14T07:20:24.424Z,17.28
2023-05-14T07:23:12.523Z,17.26
2023-05-14T07:26:00.813Z,17.00
2023-05-14T07:28:48.728Z,16.47
2023-05-14T07:31:37.062Z,16.42
2023-05-14T07:34:26.344Z,16.28
2023-05-14T07:37:14.331Z,16.59
2023-05-14T07:40:02.312Z,16.49
2023-05-14T07:42:50.263Z,16.95
2023-05-14T07:45:38.960Z,17.51
2023-05-14T07:48:27.002Z,18.23
2023-05-14T07:51:16.273Z,18.29
2023-05-14T07:54:04.565Z,18.71
2023-05-14T07:56:52.648Z,18.37
2023-05-14T07:59:40.917Z,18.70
2023-05-14T08:02:29.433Z,18.54
2023-05-14T08:05:18.001Z,18.25
2023-05-14T08:08:07.232Z,17.73
2023-05-14T08:10:55.837Z,18.04
2023-05-14T08:13:43.775Z,18.10
2023-05-14T08:16:32.018Z,17.69
2023-05-14T08:19:20.021Z,17.66
2023-05-14T08:22:08.289Z,17.44
2023-05-14T08:24:57.684Z,17.23
2023-05-14T08:27:45.579Z,17.08
2023-05-14T08:30:33.591Z,17.22
2023-05-14T08:33:21.832Z,17.65
2023-05-14T08:36:10.243Z,17.80
2023-05-14T08:38:58.598Z,17.78
2023-05-14T08:41:48.876Z,17.72
2023-05-14T08:44:43.969Z,17.65
2023-05-14T08:47:32.702Z,17.94
2023-05-14T08:50:22.966Z,17.98
2023-05-14T08:53:11.969Z,17.79
2023-05-14T08:56:02.528Z,18.34
2023-05-14T08:58:52.084Z,18.42
2023-05-14T09:01:40.960Z,18.56
2023-05-14T09:04:29.829Z,18.84
2023-05-14T09:07:17.855Z,19.42
2023-05-14T09:10:07.125Z,18.94
2023-05-14T09:12:55.168Z,19.19
2023-05-14T09:15:44.398Z,18.90
2023-05-14T09:18:32.815Z,18.90
2023-05-14T09:21:21.407Z,18.45
2023-05-14T09:24:09.881Z,18.93
2023-05-14T09:26:59.091Z,18.62
2023-05-14T09:29:47.443Z,18.38
2023-05-14T09:32:43.790Z,18.39
2023-05-14T09:35:32.725Z,18.13
2023-05-14T09:38:20.666Z,18.11
2023-05-14T09:41:08.540Z,18.09
2023-05-14T09:43:57.960Z,18.16
2023-05-14T09:46:46.058Z,18.59
2023-05-14T09:49:35.425Z,18.29
2023-05-14T09:52:24.572Z,18.11
2023-05-14T09:55:12.772Z,18.12
2023-05-14T09:58:00.729Z,17.81
2023-05-14T10:00:49.011Z,18.25
2023-05-14T10:03:37.044Z,18.29
2023-05-14T10:06:28.695Z,18.46
2023-05-14T10:09:22.024Z,18.27
2023-05-14T10:12:10.511Z,18.23
2023-05-14T10:15:02.200Z,18.64
2023-05-14T10:17:54.733Z,18.64
2023-05-14T10:20:43.847Z,18.39
2023-05-14T10:23:33.913Z,18.44
2023-05-14T10:26:23.999Z,18.95
2023-05-14T10:29:13.667Z,18.25
2023-05-14T10:32:05.986Z,18.40
2023-05-14T10:34:54.722Z,18.37
2023-05-14T10:37:42.801Z,18.65
2023-05-14T10:40:33.262Z,18.57
2023-05-14T10:43:21.869Z,18.31
2023-05-14T10:46:11.723Z,18.40
2023-05-14T10:49:00.603Z,18.39
2023-05-14T10:51:49.581Z,18.20
2023-05-14T10:54:38.193Z,18.27
2023-05-14T10:57:28.750Z,18.52
2023-05-14T11:00:17.659Z,18.57
2023-05-14T11:03:06.963Z,18.32
2023-05-14T11:05:56.428Z,18.35
2023-05-14T11:08:46.196Z,18.20
2023-05-14T11:11:34.418Z,18.50
2023-05-14T11:14:23.932Z,18.18
2023-05-14T11:17:12.716Z,17.94
2023-05-14T11:20:00.892Z,17.67
2023-05-14T11:22:51.825Z,17.62
2023-05-14T11:25:39.877Z,17.54
2023-05-14T11:28:28.184Z,17.53
2023-05-14T11:31:17.552Z,17.55
2023-05-14T11:34:07.626Z,17.40
2023-05-14T11:36:55.673Z,17.28
2023-05-14T11:39:49.094Z,17.15
2023-05-14T11:42:37.936Z,17.33
2023-05-14T11:45:27.648Z,17.22
2023-05-14T11:48:16.940Z,17.36
2023-05-14T11:51:06.002Z,17.36
2023-05-14T11:53:55.300Z,17.07
2023-05-14T11:56:43.592Z,17.29
2023-05-14T11:59:32.983Z,17.27
2023-05-14T12:02:21.030Z,17.40
2023-05-14T12:05:14.082Z,17.60
2023-05-14T12:08:02.234Z,17.75
2023-05-14T12:10:50.145Z,17.82
2023-05-14T12:13:38.206Z,18.18
2023-05-14T12:16:32.338Z,18.19
2023-05-14T12:19:21.939Z,18.22
2023-05-14T12:22:12.053Z,18.47
2023-05-14T12:25:01.551Z,18.47
2023-05-14T12:27:49.459Z,18.59
2023-05-14T12:30:39.119Z,18.99
2023-05-14T12:33:28.508Z,19.22
2023-05-14T12:36:21.631Z,19.60
2023-05-14T12:39:12.167Z,19.37
2023-05-14T12:42:00.425Z,19.57
2023-05-14T12:44:49.761Z,19.71
2023-05-14T12:47:38.426Z,20.00
2023-05-14T12:50:26.579Z,20.47
2023-05-14T12:53:16.466Z,20.11
2023-05-14T12:56:06.586Z,19.73
2023-05-14T12:58:56.397Z,19.45
2023-05-14T13:01:44.392Z,19.11
2023-05-14T13:04:32.742Z,19.19
2023-05-14T13:07:21.007Z,19.46
2023-05-14T13:10:10.516Z,19.18
2023-05-14T13:12:59.757Z,19.09
2023-05-14T13:15:47.920Z,19.16
2023-05-14T13:18:35.972Z,19.08
2023-05-14T13:21:24.436Z,18.69
2023-05-14T13:24:12.341Z,18.81
2023-05-14T13:27:00.696Z,18.97
2023-05-14T13:29:49.949Z,18.98
2023-05-14T13:32:39.274Z,19.32
2023-05-14T13:35:28.070Z,19.16
2023-05-14T13:38:16.463Z,19.37
2023-05-14T13:41:04.777Z,19.51
2023-05-14T13:43:52.950Z,20.07
2023-05-14T13:46:42.310Z,20.73
2023-05-14T13:49:31.085Z,20.96
2023-05-14T13:52:19.061Z,21.24
2023-05-14T13:55:08.392Z,21.95
2023-05-14T13:57:56.636Z,21.75
2023-05-14T14:00:44.861Z,21.59
2023-05-14T14:03:34.617Z,22.01
2023-05-14T14:06:22.611Z,22.24
2023-05-14T14:09:10.861Z,22.07
2023-05-14T14:11:59.056Z,21.60
2023-05-14T14:14:47.148Z,22.03
2023-05-14T14:17:35.195Z,21.43
2023-05-14T14:20:24.712Z,21.29
2023-05-14T14:23:12.626Z,21.01
2023-05-14T14:26:00.996Z,20.91
2023-05-14T14:28:49.147Z,20.79
2023-05-14T14:31:37.261Z,21.06
2023-05-14T14:34:25.762Z,20.89
2023-05-14T14:37:14.995Z,20.84
2023-05-14T14:40:03.174Z,20.58
2023-05-14T14:42:51.260Z,20.38
2023-05-14T14:45:39.572Z,20.67
2023-05-14T14:48:28.576Z,20.75
2023-05-14T14:51:17.095Z,20.68
2023-05-14T14:54:06.885Z,20.82
2023-05-14T14:56:54.950Z,21.22
2023-05-14T14:59:43.173Z,21.54
2023-05-14T15:02:31.417Z,22.06
2023-05-14T15:05:19.665Z,21.56
2023-05-14T15:08:07.601Z,21.00
2023-05-14T15:10:57.714Z,20.45
2023-05-14T15:13:45.722Z,19.94
2023-05-14T15:16:33.950Z,19.60
2023-05-14T15:19:21.955Z,19.36
2023-05-14T15:22:10.007Z,18.95
2023-05-14T15:24:58.538Z,18.81
2023-05-14T15:27:47.905Z,18.97
2023-05-14T15:30:36.382Z,19.27
2023-05-14T15:33:24.330Z,19.91
2023-05-14T15:36:12.803Z,19.95
2023-05-14T15:39:01.052Z,20.32
2023-05-14T15:41:49.122Z,20.69
2023-05-14T15:44:39.098Z,20.71
2023-05-14T15:47:27.147Z,21.02
2023-05-14T15:50:15.344Z,21.35
2023-05-14T15:53:03.655Z,20.89
2023-05-14T15:55:52.019Z,20.81
2023-05-14T15:58:39.942Z,20.78
2023-05-14T16:01:29.246Z,20.80
2023-05-14T16:04:17.195Z,20.97
2023-05-14T16:07:09.390Z,20.86
2023-05-14T16:09:57.516Z,20.58
2023-05-14T16:12:45.698Z,20.64
2023-05-14T16:15:34.304Z,20.55
2023-05-14T16:18:25.165Z,20.66
2023-05-14T16:21:13.305Z,20.90
2023-05-14T16:24:01.277Z,20.66
2023-05-14T16:26:49.599Z,20.77
2023-05-14T16:29:37.648Z,20.92
2023-05-14T16:32:26.136Z,21.12
2023-05-14T16:35:15.644Z,22.42
2023-05-14T16:38:04.092Z,23.57
2023-05-14T16:40:52.092Z,24.28
2023-05-14T16:43:40.041Z,23.72
2023-05-14T16:46:29.187Z,23.60
2023-05-14T16:49:17.564Z,24.70
2023-05-14T16:52:08.353Z,24.24
2023-05-14T16:54:56.563Z,24.98
2023-05-14T16:57:44.633Z,24.96
2023-05-14T17:00:32.825Z,26.03
2023-05-14T17:03:20.823Z,26.43
2023-05-14T17:06:10.170Z,25.86
2023-05-14T17:08:59.446Z,25.08
2023-05-14T17:11:47.949Z,23.92
2023-05-14T17:14:35.858Z,21.98
2023-05-14T17:17:24.064Z,20.91
2023-05-14T17:20:15.268Z,19.94
2023-05-14T17:23:04.960Z,19.70
2023-05-14T17:25:56.492Z,19.12
2023-05-14T17:28:44.941Z,18.91
2023-05-14T17:31:32.889Z,18.74
2023-05-14T17:34:21.334Z,18.94
2023-05-14T17:37:09.446Z,18.74
2023-05-14T17:39:57.635Z,18.65
2023-05-14T17:42:46.867Z,18.52
2023-05-14T17:45:46.189Z,18.54
2023-05-14T17:48:41.571Z,18.29
2023-05-14T17:51:29.791Z,17.93
2023-05-14T17:54:17.788Z,18.00
2023-05-14T17:57:06.193Z,17.82
2023-05-14T17:59:55.773Z,17.67
2023-05-14T18:02:44.266Z,17.33
2023-05-14T18:05:32.246Z,17.27
2023-05-14T18:08:20.341Z,17.13
2023-05-14T18:11:08.248Z,17.04
2023-05-14T18:13:56.229Z,17.01
2023-05-14T18:16:45.770Z,16.84
2023-05-14T18:19:34.021Z,16.72
2023-05-14T18:22:22.100Z,16.70
2023-05-14T18:25:10.951Z,16.66
2023-05-14T18:27:58.876Z,16.46
2023-05-14T18:30:47.311Z,16.01
2023-05-14T18:33:36.683Z,15.60
2023-05-14T18:36:24.689Z,15.33
2023-05-14T18:39:12.651Z,15.01
2023-05-14T18:42:01.824Z,14.77
2023-05-14T18:44:49.805Z,14.37
2023-05-14T18:47:39.804Z,14.17
2023-05-14T18:50:29.095Z,14.03
2023-05-14T18:53:17.293Z,13.85
2023-05-14T18:56:05.719Z,13.68
2023-05-14T18:58:54.405Z,13.56
2023-05-14T19:01:42.376Z,13.56
2023-05-14T19:04:33.283Z,13.68
2023-05-14T19:07:23.241Z,13.52
2023-05-14T19:10:11.651Z,13.33
2023-05-14T19:13:00.208Z,13.35
2023-05-14T19:15:48.589Z,13.18
2023-05-14T19:18:36.549Z,12.99
2023-05-14T19:21:25.155Z,12.90
2023-05-14T19:24:14.596Z,12.74
2023-05-14T19:27:02.777Z,12.62
2023-05-14T19:29:51.212Z,12.53
2023-05-14T19:32:39.286Z,12.55
2023-05-14T19:35:27.426Z,12.58
2023-05-14T19:38:16.153Z,12.67
2023-05-14T19:41:05.517Z,12.71
2023-05-14T19:43:53.432Z,12.68
2023-05-14T19:46:41.511Z,12.76
2023-05-14T19:49:29.501Z,12.84
2023-05-14T19:52:17.448Z,12.71
2023-05-14T19:55:06.430Z,12.62
2023-05-14T19:57:55.716Z,12.47
2023-05-14T20:00:44.014Z,12.43
2023-05-14T20:03:32.181Z,12.48
2023-05-14T20:06:20.604Z,12.72
2023-05-14T20:09:08.507Z,12.57
2023-05-14T20:11:56.442Z,12.43
2023-05-14T20:14:45.679Z,12.46
2023-05-14T20:17:33.974Z,12.53
2023-05-14T20:20:22.233Z,12.55
2023-05-14T20:23:10.495Z,12.64
2023-05-14T20:25:58.380Z,12.65
2023-05-14T20:28:46.532Z,12.63
2023-05-14T20:31:35.770Z,12.74
2023-05-14T20:34:23.989Z,12.33
2023-05-14T20:37:11.882Z,12.65
2023-05-14T20:40:00.859Z,12.55
2023-05-14T20:42:50.217Z,12.57
2023-05-14T20:45:38.421Z,12.48
2023-05-14T20:48:27.710Z,12.40
2023-05-14T20:51:15.653Z,12.23
2023-05-14T20:54:03.587Z,12.13
2023-05-14T20:56:51.774Z,12.05
2023-05-14T20:59:39.805Z,12.01
2023-05-14T21:02:27.863Z,11.97
2023-05-14T21:05:17.619Z,11.69
2023-05-14T21:08:06.030Z,11.65
2023-05-14T21:10:54.034Z,11.59
2023-05-14T21:13:44.016Z,11.66
2023-05-14T21:16:32.214Z,11.53
2023-05-14T21:19:20.628Z,11.90
2023-05-14T21:22:09.992Z,11.94
2023-05-14T21:24:58.269Z,11.97
2023-05-14T21:27:46.253Z,11.77
2023-05-14T21:30:34.619Z,11.37
2023-05-14T21:33:23.640Z,11.30
2023-05-14T21:36:12.273Z,11.28
2023-05-14T21:39:01.546Z,11.19
2023-05-14T21:41:49.792Z,11.10
2023-05-14T21:44:37.810Z,11.07
2023-05-14T21:47:26.072Z,11.01
2023-05-14T21:50:14.048Z,10.91
2023-05-14T21:53:02.218Z,10.70
2023-05-14T21:55:51.472Z,10.62
2023-05-14T21:58:40.018Z,10.54
2023-05-14T22:01:27.985Z,10.42
2023-05-14T22:04:16.326Z,10.39
2023-05-14T22:07:04.668Z,10.42
2023-05-14T22:09:52.904Z,10.35
2023-05-14T22:12:43.281Z,10.26
2023-05-14T22:15:31.276Z,10.18
2023-05-14T22:18:19.322Z,10.12
2023-05-14T22:21:07.344Z,10.17
2023-05-14T22:23:55.651Z,10.05
2023-05-14T22:26:43.570Z,10.06
2023-05-14T22:29:33.202Z,10.17
2023-05-14T22:32:21.131Z,10.14
2023-05-14T22:35:10.078Z,10.09
2023-05-14T22:37:57.987Z,10.02
2023-05-14T22:40:46.258Z,10.07
2023-05-14T22:43:34.201Z,10.15
2023-05-14T22:46:23.857Z,10.32
2023-05-14T22:49:11.783Z,10.47
2023-05-14T22:52:00.036Z,10.66
2023-05-14T22:54:50.788Z,10.81
2023-05-14T22:57:39.060Z,10.94
2023-05-14T23:00:27.089Z,11.01
2023-05-14T23:03:16.668Z,11.09
2023-05-14T23:06:05.097Z,11.12
2023-05-14T23:08:53.272Z,11.16
2023-05-14T23:11:41.226Z,11.18
2023-05-14T23:14:29.340Z,11.21
2023-05-14T23:17:18.004Z,11.22
2023-05-14T23:20:10.781Z,11.01
2023-05-14T23:22:58.722Z,10.91
2023-05-14T23:25:47.200Z,10.88
2023-05-14T23:28:35.129Z,10.83
2023-05-14T23:31:23.187Z,10.77
2023-05-14T23:34:11.250Z,10.70
2023-05-14T23:37:01.111Z,10.62
2023-05-14T23:39:49.070Z,10.51
2023-05-14T23:42:36.997Z,10.40
2023-05-14T23:45:25.024Z,10.32
2023-05-14T23:48:13.660Z,10.29
2023-05-14T23:51:01.601Z,10.33
2023-05-14T23:53:53.321Z,10.27
2023-05-14T23:56:41.566Z,10.19
2023-05-14T23:59:29.889Z,10.27
